Scottsdale West Minstone, Tasmania

1:28 AM AEDT on November 01, 2014 (GMT +1100)
Rural, NE Tasmania | Change Station
CLOSE
Current Station
Personal Weather Station
Location: Branxholm, TASMANIA
Elevation: 739 ft
Nearby Weather Stations

Elev 739 ft 41.17 °S, 147.75 °E | Updated 12 seconds ago

Scattered Clouds
Scattered Clouds
50.5 °F
Feels Like 50.5 °F
N
0.0
Wind Variable Wind from ENE
Gusts 0.9 mph

Today
High -- | Low -- °F
--% Chance of Precip.
Yesterday
High -- | Low -- °F
Precip. -- in
5:57 AM 7:50 PM
First Quarter, 55% visible
Pressure 29.33 in
Visibility 6.2 miles
Clouds Scattered Clouds 12000 ft
Dew Point 46 °F
Humidity 83%
Rainfall 0.00 in
Snow Depth Not available.
UV 0 out of 12
Pollen Not available.
Air Quality Not available.
Flu Activity Not available.
SPECI YMLT 311421Z AUTO 30002KT 9999 // SCT120 10/09 Q0993

More Conditions Fewer Conditions

Pressure 29.33 in
Visibility 6.2 miles
Clouds Scattered Clouds 12000 ft
Dew Point 46 °F
Humidity 83%
Rainfall 0.00 in
Snow Depth Not available.
UV 0 out of 12
Pollen Not available.
Air Quality Not available.
Flu Activity Not available.
SPECI YMLT 311421Z AUTO 30002KT 9999 // SCT120 10/09 Q0993

More Conditions Fewer Conditions

10-Day Weather Forecast

Almanac

Astronomy

Nov. 01, 2014 Rise Set
Actual Time
Civil Twilight
Nautical Twilight
Astronomical Twilight
Moon
Length of Visible Light
Length of Day
Tomorrow will be .
, % of the Moon is Illuminated

Today's Extremes

Country Highs Country Lows

Community

WunderPhotos

Upload Photos

1,766,617 photos uploaded!

WunderBlogs® & News

Nearby

Air Quality

  Air Quality AQ Index Pollutant
Not available.

Snow Depth

Station Depth Elevation

Earthquake Activity

City Distance Mag. Time & Date
Minimum magnitude displayed is 2.5.

Coastal Water Temperatures

Place Temperature

Nearby Weather Stations